Weather at Kelsey Airport

Public forecast

Using degrees Celsius for public forecast. Weather courtesy of forecast.io.

Closest aviation weather report (METAR) to Kelsey Airport

Closest report is Thompson Airport, 47.7 nm (88.4 km) WSW. Retrieved 2020/11/24 19:00 UTC (52 minutes ago):

CYTH 241900Z 34006KT 8SM -SN SCT010 OVC045 M12/M14 A2979 RMK SF3SC5 SLP113

Closest aviation forecast (TAF) to Kelsey Airport

Closest forecast is Thompson Airport, 47.7 nm (88.4 km) WSW. Retrieved 2020/11/24 19:42 UTC (10 minutes ago):

TAF CYTH 241838Z 2419/2507 02006KT P6SM -SN OVC025 TEMPO 2419/2422 4SM -SN OVC020 FM242200 34005KT P6SM SCT020 TEMPO 2422/2504 BKN020 FM250400 VRB03KT P6SM OVC010 TEMPO 2504/2507 5SM -SN BR OVC006 RMK NXT FCST BY 250100Z